createdAt,value
2018-12-29T00:00:46.119Z,27.00
2018-12-29T00:03:15.519Z,26.87
2018-12-29T00:05:44.947Z,27.23
2018-12-29T00:08:14.331Z,27.93
2018-12-29T00:10:43.729Z,26.03
2018-12-29T00:13:13.222Z,28.37
2018-12-29T00:15:42.613Z,26.23
2018-12-29T00:18:11.981Z,27.50
2018-12-29T00:20:41.415Z,26.25
2018-12-29T00:23:10.802Z,25.63
2018-12-29T00:25:40.201Z,25.90
2018-12-29T00:28:09.685Z,26.37
2018-12-29T00:30:39.070Z,25.63
2018-12-29T00:33:08.468Z,24.87
2018-12-29T00:35:38.321Z,25.77
2018-12-29T00:38:07.753Z,27.47
2018-12-29T00:40:37.371Z,26.15
2018-12-29T00:43:07.015Z,26.30
2018-12-29T00:45:36.422Z,26.23
2018-12-29T00:48:09.176Z,24.23
2018-12-29T00:50:38.968Z,25.70
2018-12-29T00:53:08.336Z,25.10
2018-12-29T00:55:37.952Z,25.70
2018-12-29T00:58:07.638Z,26.45
2018-12-29T01:00:37.183Z,25.53
2018-12-29T01:03:06.572Z,26.52
2018-12-29T01:05:36.042Z,22.83
2018-12-29T01:08:05.444Z,24.47
2018-12-29T01:10:34.906Z,23.87
2018-12-29T01:13:04.301Z,23.70
2018-12-29T01:15:33.724Z,23.90
2018-12-29T01:18:03.195Z,21.87
2018-12-29T01:20:32.951Z,22.20
2018-12-29T01:23:02.578Z,24.63
2018-12-29T01:25:32.004Z,21.47
2018-12-29T01:28:01.519Z,24.53
2018-12-29T01:30:30.921Z,22.20
2018-12-29T01:33:00.317Z,23.17
2018-12-29T01:35:29.770Z,23.97
2018-12-29T01:37:59.749Z,21.75
2018-12-29T01:40:29.730Z,23.90
2018-12-29T01:43:00.123Z,22.42
2018-12-29T01:45:29.717Z,21.33
2018-12-29T01:47:59.693Z,23.92
2018-12-29T01:50:29.776Z,24.25
2018-12-29T01:52:59.967Z,22.48
2018-12-29T01:55:29.654Z,22.30
2018-12-29T01:57:59.686Z,22.55
2018-12-29T02:00:29.675Z,22.45
2018-12-29T02:02:59.685Z,22.05
2018-12-29T02:05:29.805Z,22.00
2018-12-29T02:07:59.613Z,25.27
2018-12-29T02:10:29.733Z,24.57
2018-12-29T02:12:59.713Z,23.55
2018-12-29T02:15:29.721Z,26.25
2018-12-29T02:17:59.653Z,24.85
2018-12-29T02:20:30.076Z,25.23
2018-12-29T02:22:59.755Z,25.72
2018-12-29T02:25:29.942Z,25.03
2018-12-29T02:27:59.790Z,25.27
2018-12-29T02:30:29.759Z,24.95
2018-12-29T02:32:59.745Z,26.70
2018-12-29T02:35:29.986Z,25.80
2018-12-29T02:37:59.717Z,27.20
2018-12-29T02:40:29.789Z,24.85
2018-12-29T02:42:59.829Z,24.32
2018-12-29T02:45:33.266Z,24.40
2018-12-29T02:48:01.066Z,23.60
2018-12-29T02:50:30.638Z,26.13
2018-12-29T02:53:01.108Z,26.03
2018-12-29T02:55:30.644Z,24.98
2018-12-29T02:58:00.191Z,24.83
2018-12-29T03:00:29.731Z,26.35
2018-12-29T03:02:59.699Z,26.23
2018-12-29T03:05:29.837Z,28.02
2018-12-29T03:07:59.716Z,28.07
2018-12-29T03:10:29.742Z,25.97
2018-12-29T03:12:59.760Z,26.70
2018-12-29T03:15:29.732Z,26.13
2018-12-29T03:17:59.734Z,26.17
2018-12-29T03:20:29.855Z,27.17
2018-12-29T03:22:59.756Z,28.07
2018-12-29T03:25:29.814Z,25.95
2018-12-29T03:27:59.867Z,25.50
2018-12-29T03:30:29.735Z,26.50
2018-12-29T03:32:59.969Z,25.68
2018-12-29T03:35:29.944Z,25.55
2018-12-29T03:37:59.744Z,25.75
2018-12-29T03:40:29.893Z,24.90
2018-12-29T03:42:59.973Z,24.50
2018-12-29T03:45:29.774Z,22.17
2018-12-29T03:47:59.748Z,22.73
2018-12-29T03:50:29.903Z,21.07
2018-12-29T03:52:59.770Z,23.92
2018-12-29T03:55:29.839Z,23.90
2018-12-29T03:57:59.826Z,22.27
2018-12-29T04:00:29.796Z,23.67
2018-12-29T04:02:59.788Z,21.17
2018-12-29T04:05:29.933Z,18.70
2018-12-29T04:07:59.874Z,21.52
2018-12-29T04:10:29.810Z,22.87
2018-12-29T04:13:01.430Z,21.60
2018-12-29T04:15:31.155Z,18.87
2018-12-29T04:18:00.585Z,19.77
2018-12-29T04:20:30.045Z,18.33
2018-12-29T04:22:59.849Z,17.45
2018-12-29T04:25:29.839Z,17.45
2018-12-29T04:28:00.010Z,16.77
2018-12-29T04:30:29.895Z,18.05
2018-12-29T04:32:59.890Z,17.62
2018-12-29T04:35:30.124Z,17.42
2018-12-29T04:37:59.893Z,17.95
2018-12-29T04:40:29.889Z,16.82
2018-12-29T04:43:00.454Z,19.23
2018-12-29T04:45:29.894Z,17.93
2018-12-29T04:47:59.909Z,17.40
2018-12-29T04:50:30.092Z,20.92
2018-12-29T04:52:59.938Z,18.45
2018-12-29T04:55:29.912Z,18.57
2018-12-29T04:58:00.375Z,17.75
2018-12-29T05:00:29.927Z,18.23
2018-12-29T05:02:59.916Z,18.82
2018-12-29T05:05:30.059Z,17.57
2018-12-29T05:07:59.915Z,18.25
2018-12-29T05:10:29.932Z,16.27
2018-12-29T05:12:59.984Z,16.60
2018-12-29T05:15:29.928Z,15.90
2018-12-29T05:17:59.916Z,17.73
2018-12-29T05:20:30.115Z,15.20
2018-12-29T05:22:59.963Z,15.78
2018-12-29T05:25:29.938Z,16.05
2018-12-29T05:28:00.154Z,13.60
2018-12-29T05:30:29.995Z,12.37
2018-12-29T05:32:59.942Z,14.28
2018-12-29T05:35:30.087Z,13.88
2018-12-29T05:37:59.954Z,14.18
2018-12-29T05:40:29.968Z,13.43
2018-12-29T05:43:00.020Z,13.20
2018-12-29T05:45:30.019Z,13.78
2018-12-29T05:47:59.969Z,14.30
2018-12-29T05:50:30.152Z,14.13
2018-12-29T05:53:00.018Z,16.50
2018-12-29T05:55:29.981Z,13.85
2018-12-29T05:58:00.148Z,15.78
2018-12-29T06:00:29.999Z,16.05
2018-12-29T06:03:00.133Z,14.60
2018-12-29T06:05:30.172Z,14.65
2018-12-29T06:08:00.011Z,16.00
2018-12-29T06:10:30.039Z,15.08
2018-12-29T06:13:00.069Z,15.30
2018-12-29T06:15:30.036Z,15.68
2018-12-29T06:18:00.025Z,14.83
2018-12-29T06:20:30.077Z,14.47
2018-12-29T06:23:00.091Z,15.98
2018-12-29T06:25:30.059Z,15.85
2018-12-29T06:28:00.201Z,15.28
2018-12-29T06:30:30.016Z,14.60
2018-12-29T06:33:00.036Z,14.45
2018-12-29T06:35:30.098Z,16.50
2018-12-29T06:38:00.032Z,16.93
2018-12-29T06:40:30.019Z,17.10
2018-12-29T06:43:00.128Z,17.12
2018-12-29T06:45:30.052Z,16.12
2018-12-29T06:48:00.059Z,17.00
2018-12-29T06:50:30.239Z,19.60
2018-12-29T06:53:00.066Z,17.32
2018-12-29T06:55:30.108Z,17.65
2018-12-29T06:58:00.173Z,18.40
2018-12-29T07:00:30.068Z,20.27
2018-12-29T07:03:00.101Z,21.55
2018-12-29T07:05:30.106Z,19.62
2018-12-29T07:08:00.322Z,22.70
2018-12-29T07:10:30.113Z,22.82
2018-12-29T07:13:00.828Z,22.35
2018-12-29T07:15:30.255Z,22.33
2018-12-29T07:18:00.198Z,22.20
2018-12-29T07:20:30.137Z,21.95
2018-12-29T07:23:00.169Z,22.02
2018-12-29T07:25:30.091Z,22.50
2018-12-29T07:28:00.293Z,23.55
2018-12-29T07:30:30.126Z,24.50
2018-12-29T07:33:00.140Z,23.15
2018-12-29T07:35:30.553Z,25.37
2018-12-29T07:38:00.111Z,23.32
2018-12-29T07:40:30.091Z,25.27
2018-12-29T07:43:00.164Z,23.80
2018-12-29T07:45:30.104Z,27.02
2018-12-29T07:48:00.169Z,25.95
2018-12-29T07:50:30.265Z,28.10
2018-12-29T07:53:00.140Z,26.70
2018-12-29T07:55:30.126Z,24.30
2018-12-29T07:58:00.668Z,27.45
2018-12-29T08:00:30.148Z,24.40
2018-12-29T08:03:00.191Z,25.35
2018-12-29T08:05:30.317Z,27.22
2018-12-29T08:08:00.159Z,26.60
2018-12-29T08:10:30.179Z,27.85
2018-12-29T08:13:00.264Z,25.32
2018-12-29T08:15:30.144Z,25.02
2018-12-29T08:18:00.156Z,28.27
2018-12-29T08:20:30.303Z,24.80
2018-12-29T08:23:00.159Z,24.63
2018-12-29T08:25:30.146Z,25.77
2018-12-29T08:28:00.296Z,26.05
2018-12-29T08:30:30.153Z,23.35
2018-12-29T08:33:00.234Z,23.62
2018-12-29T08:35:30.329Z,22.48
2018-12-29T08:38:00.179Z,23.83
2018-12-29T08:40:30.177Z,21.93
2018-12-29T08:43:00.381Z,21.57
2018-12-29T08:45:30.156Z,21.73
2018-12-29T08:48:00.182Z,19.90
2018-12-29T08:50:30.377Z,19.42
2018-12-29T08:53:00.189Z,19.57
2018-12-29T08:55:30.171Z,18.37
2018-12-29T08:58:00.228Z,18.70
2018-12-29T09:00:30.172Z,18.80
2018-12-29T09:03:00.181Z,19.77
2018-12-29T09:05:30.379Z,18.48
2018-12-29T09:08:00.213Z,19.25
2018-12-29T09:10:30.218Z,20.40
2018-12-29T09:13:00.407Z,20.02
2018-12-29T09:15:30.217Z,19.25
2018-12-29T09:18:00.314Z,20.17
2018-12-29T09:20:30.323Z,19.05
2018-12-29T09:23:00.224Z,19.27
2018-12-29T09:25:30.303Z,19.00
2018-12-29T09:28:00.279Z,19.70
2018-12-29T09:30:30.271Z,21.15
2018-12-29T09:33:00.242Z,19.57
2018-12-29T09:35:30.370Z,20.65
2018-12-29T09:38:00.239Z,18.85
2018-12-29T09:40:30.280Z,19.17
2018-12-29T09:43:00.323Z,21.12
2018-12-29T09:45:30.270Z,21.68
2018-12-29T09:48:00.397Z,20.40
2018-12-29T09:50:30.671Z,21.35
2018-12-29T09:53:00.258Z,20.52
2018-12-29T09:55:30.238Z,22.20
2018-12-29T09:58:00.662Z,21.77
2018-12-29T10:00:30.265Z,21.05
2018-12-29T10:03:00.243Z,21.87
2018-12-29T10:05:30.444Z,21.25
2018-12-29T10:08:00.265Z,22.05
2018-12-29T10:10:30.238Z,23.00
2018-12-29T10:13:00.282Z,22.27
2018-12-29T10:15:30.330Z,21.95
2018-12-29T10:18:00.284Z,22.48
2018-12-29T10:20:30.446Z,24.27
2018-12-29T10:23:00.449Z,23.47
2018-12-29T10:25:30.274Z,23.27
2018-12-29T10:28:00.428Z,21.17
2018-12-29T10:30:30.253Z,21.17
2018-12-29T10:33:00.268Z,22.60
2018-12-29T10:35:30.409Z,21.87
2018-12-29T10:38:00.283Z,21.37
2018-12-29T10:40:30.255Z,20.68
2018-12-29T10:43:00.393Z,21.00
2018-12-29T10:45:30.261Z,21.68
2018-12-29T10:48:00.332Z,20.25
2018-12-29T10:50:30.455Z,21.07
2018-12-29T10:53:00.335Z,21.90
2018-12-29T10:55:30.299Z,21.40
2018-12-29T10:58:00.450Z,21.52
2018-12-29T11:00:34.969Z,20.82
2018-12-29T11:03:01.507Z,20.37
2018-12-29T11:05:31.189Z,20.40
2018-12-29T11:08:00.643Z,21.53
2018-12-29T11:10:30.404Z,19.70
2018-12-29T11:13:00.495Z,19.40
2018-12-29T11:15:30.325Z,20.07
2018-12-29T11:18:00.333Z,20.02
2018-12-29T11:20:30.418Z,19.32
2018-12-29T11:23:00.388Z,20.80
2018-12-29T11:25:30.453Z,20.05
2018-12-29T11:28:00.630Z,19.98
2018-12-29T11:30:30.338Z,19.40
2018-12-29T11:33:00.330Z,21.00
2018-12-29T11:35:30.477Z,19.65
2018-12-29T11:38:00.409Z,21.25
2018-12-29T11:40:30.331Z,20.15
2018-12-29T11:43:00.470Z,21.37
2018-12-29T11:45:30.373Z,21.00
2018-12-29T11:48:00.373Z,20.32
2018-12-29T11:50:30.505Z,19.48
2018-12-29T11:53:00.359Z,21.55
2018-12-29T11:55:30.381Z,20.88
2018-12-29T11:58:00.599Z,21.42
2018-12-29T12:00:30.434Z,22.55
2018-12-29T12:03:00.326Z,23.87
2018-12-29T12:05:30.500Z,23.73
2018-12-29T12:08:00.335Z,22.95
2018-12-29T12:10:30.382Z,22.10
2018-12-29T12:13:00.414Z,24.70
2018-12-29T12:15:30.369Z,24.52
2018-12-29T12:18:00.621Z,27.13
2018-12-29T12:20:30.845Z,28.77
2018-12-29T12:23:00.418Z,29.57
2018-12-29T12:25:30.419Z,32.20
2018-12-29T12:28:00.453Z,33.25
2018-12-29T12:30:39.199Z,33.40
2018-12-29T12:33:09.245Z,33.40
2018-12-29T12:35:39.072Z,34.23
2018-12-29T12:38:08.841Z,34.80
2018-12-29T12:40:38.303Z,32.70
2018-12-29T12:43:10.852Z,33.23
2018-12-29T12:45:40.558Z,33.83
2018-12-29T12:48:10.006Z,32.47
2018-12-29T12:50:39.587Z,33.03
2018-12-29T12:53:09.120Z,32.63
2018-12-29T12:55:38.851Z,32.33
2018-12-29T12:58:10.116Z,29.40
2018-12-29T13:00:39.917Z,28.83
2018-12-29T13:03:12.565Z,29.43
2018-12-29T13:05:42.136Z,29.97
2018-12-29T13:08:11.533Z,31.00
2018-12-29T13:10:40.967Z,31.23
2018-12-29T13:13:10.482Z,31.63
2018-12-29T13:15:39.929Z,30.67
2018-12-29T13:18:13.065Z,31.23
2018-12-29T13:20:42.758Z,31.10
2018-12-29T13:23:12.263Z,30.10
2018-12-29T13:25:41.736Z,31.20
2018-12-29T13:28:11.217Z,31.30
2018-12-29T13:30:40.621Z,30.23
2018-12-29T13:33:10.235Z,29.90
2018-12-29T13:35:39.831Z,32.13
2018-12-29T13:38:09.237Z,30.70
2018-12-29T13:40:38.605Z,29.87
2018-12-29T13:43:08.147Z,30.07
2018-12-29T13:45:37.542Z,31.40
2018-12-29T13:48:07.101Z,30.80
2018-12-29T13:50:36.596Z,31.30
2018-12-29T13:53:06.244Z,31.70
2018-12-29T13:55:35.615Z,30.77
2018-12-29T13:58:05.170Z,30.77
2018-12-29T14:00:34.573Z,31.53
2018-12-29T14:03:04.002Z,29.43
2018-12-29T14:05:33.549Z,29.70
2018-12-29T14:08:02.943Z,30.90
2018-12-29T14:10:32.313Z,29.30
2018-12-29T14:13:01.897Z,31.03
2018-12-29T14:15:31.476Z,33.00
2018-12-29T14:18:00.862Z,30.77
2018-12-29T14:20:31.367Z,30.70
2018-12-29T14:23:00.788Z,30.13
2018-12-29T14:25:30.446Z,31.05
2018-12-29T14:28:00.653Z,32.17
2018-12-29T14:30:30.494Z,31.02
2018-12-29T14:33:00.506Z,31.20
2018-12-29T14:35:30.678Z,31.65
2018-12-29T14:38:00.651Z,30.20
2018-12-29T14:40:30.460Z,27.60
2018-12-29T14:43:00.555Z,29.98
2018-12-29T14:45:30.476Z,31.48
2018-12-29T14:48:00.497Z,29.15
2018-12-29T14:50:30.660Z,29.95
2018-12-29T14:53:00.504Z,31.00
2018-12-29T14:55:30.483Z,31.25
2018-12-29T14:58:00.600Z,30.08
2018-12-29T15:00:30.546Z,28.95
2018-12-29T15:03:00.509Z,32.98
2018-12-29T15:05:30.635Z,31.25
2018-12-29T15:08:00.698Z,31.55
2018-12-29T15:10:30.560Z,30.17
2018-12-29T15:13:00.603Z,29.33
2018-12-29T15:15:30.540Z,29.45
2018-12-29T15:18:00.556Z,28.83
2018-12-29T15:20:31.493Z,27.52
2018-12-29T15:23:01.178Z,28.50
2018-12-29T15:25:30.623Z,30.40
2018-12-29T15:28:00.651Z,26.70
2018-12-29T15:30:30.554Z,26.70
2018-12-29T15:33:00.534Z,26.95
2018-12-29T15:35:30.620Z,25.97
2018-12-29T15:38:00.546Z,26.60
2018-12-29T15:40:30.911Z,26.87
2018-12-29T15:43:00.606Z,26.07
2018-12-29T15:45:30.584Z,23.63
2018-12-29T15:48:00.603Z,24.75
2018-12-29T15:50:30.724Z,23.67
2018-12-29T15:53:00.560Z,23.32
2018-12-29T15:55:30.550Z,28.30
2018-12-29T15:58:00.749Z,21.97
2018-12-29T16:00:30.563Z,22.75
2018-12-29T16:03:02.172Z,22.22
2018-12-29T16:05:31.733Z,22.27
2018-12-29T16:08:01.126Z,21.83
2018-12-29T16:10:30.652Z,20.93
2018-12-29T16:13:00.739Z,22.07
2018-12-29T16:15:30.569Z,21.60
2018-12-29T16:18:00.628Z,20.55
2018-12-29T16:20:30.998Z,21.12
2018-12-29T16:23:00.578Z,21.48
2018-12-29T16:25:30.619Z,20.77
2018-12-29T16:28:01.045Z,20.55
2018-12-29T16:30:30.795Z,19.60
2018-12-29T16:33:00.633Z,21.05
2018-12-29T16:35:30.755Z,20.57
2018-12-29T16:38:00.658Z,20.72
2018-12-29T16:40:30.642Z,18.67
2018-12-29T16:43:00.818Z,19.20
2018-12-29T16:45:30.587Z,19.25
2018-12-29T16:48:00.631Z,19.85
2018-12-29T16:50:30.724Z,19.67
2018-12-29T16:53:00.661Z,19.92
2018-12-29T16:55:30.606Z,19.50
2018-12-29T16:58:00.836Z,18.90
2018-12-29T17:00:30.663Z,19.32
2018-12-29T17:03:00.648Z,20.80
2018-12-29T17:05:30.699Z,18.80
2018-12-29T17:08:00.650Z,20.50
2018-12-29T17:10:30.650Z,20.95
2018-12-29T17:13:00.820Z,20.85
2018-12-29T17:15:30.696Z,20.82
2018-12-29T17:18:00.804Z,20.62
2018-12-29T17:20:30.729Z,19.17
2018-12-29T17:23:00.717Z,18.62
2018-12-29T17:25:30.740Z,19.92
2018-12-29T17:28:00.814Z,20.02
2018-12-29T17:30:30.643Z,18.85
2018-12-29T17:33:00.642Z,18.85
2018-12-29T17:35:30.723Z,17.70
2018-12-29T17:38:00.714Z,19.85
2018-12-29T17:40:30.680Z,17.92
2018-12-29T17:43:00.706Z,18.62
2018-12-29T17:45:30.720Z,19.25
2018-12-29T17:48:00.767Z,19.23
2018-12-29T17:50:30.715Z,19.98
2018-12-29T17:53:00.695Z,19.45
2018-12-29T17:55:30.674Z,18.00
2018-12-29T17:58:01.339Z,19.98
2018-12-29T18:00:33.758Z,18.53
2018-12-29T18:03:03.192Z,17.33
2018-12-29T18:05:32.635Z,17.45
2018-12-29T18:08:02.169Z,17.87
2018-12-29T18:10:31.928Z,18.07
2018-12-29T18:13:01.453Z,18.90
2018-12-29T18:15:30.841Z,17.93
2018-12-29T18:18:01.448Z,17.07
2018-12-29T18:20:31.418Z,16.53
2018-12-29T18:23:04.440Z,16.10
2018-12-29T18:25:34.152Z,17.87
2018-12-29T18:28:05.261Z,16.07
2018-12-29T18:30:34.974Z,16.53
2018-12-29T18:33:04.657Z,15.60
2018-12-29T18:35:34.452Z,15.43
2018-12-29T18:38:08.766Z,15.93
2018-12-29T18:40:38.625Z,14.17
2018-12-29T18:43:08.579Z,16.03
2018-12-29T18:45:38.334Z,15.40
2018-12-29T18:48:08.612Z,13.43
2018-12-29T18:50:38.452Z,13.88
2018-12-29T18:53:08.200Z,13.08
2018-12-29T18:55:40.757Z,14.43
2018-12-29T18:58:10.317Z,15.40
2018-12-29T19:00:40.338Z,13.75
2018-12-29T19:03:09.835Z,14.25
2018-12-29T19:05:42.849Z,14.10
2018-12-29T19:08:12.960Z,15.23
2018-12-29T19:10:44.519Z,13.78
2018-12-29T19:13:14.386Z,14.27
2018-12-29T19:15:44.239Z,13.13
2018-12-29T19:18:14.006Z,13.60
2018-12-29T19:20:43.772Z,13.10
2018-12-29T19:23:13.816Z,11.40
2018-12-29T19:25:43.331Z,11.23
2018-12-29T19:28:13.673Z,10.90
2018-12-29T19:30:43.090Z,11.23
2018-12-29T19:33:13.100Z,10.68
2018-12-29T19:35:42.743Z,10.37
2018-12-29T19:38:12.874Z,10.50
2018-12-29T19:40:42.511Z,10.53
2018-12-29T19:43:12.722Z,9.63
2018-12-29T19:45:42.183Z,10.23
2018-12-29T19:48:11.599Z,10.20
2018-12-29T19:50:41.422Z,9.20
2018-12-29T19:53:11.431Z,7.97
2018-12-29T19:55:41.107Z,7.70
2018-12-29T19:58:11.249Z,6.25
2018-12-29T20:00:40.766Z,5.67
2018-12-29T20:03:11.343Z,4.73
2018-12-29T20:05:41.376Z,3.90
2018-12-29T20:08:10.911Z,3.30
2018-12-29T20:10:40.374Z,2.80
2018-12-29T20:13:10.174Z,2.43
2018-12-29T20:15:39.849Z,2.23
2018-12-29T20:18:12.236Z,2.30
2018-12-29T20:20:41.693Z,1.97
2018-12-29T20:23:11.316Z,2.00
2018-12-29T20:25:40.848Z,1.73
2018-12-29T20:28:10.613Z,1.90
2018-12-29T20:30:40.185Z,1.40
2018-12-29T20:33:09.663Z,1.70
2018-12-29T20:35:39.614Z,1.53
2018-12-29T20:38:09.086Z,1.40
2018-12-29T20:40:38.482Z,1.97
2018-12-29T20:43:08.160Z,1.53
2018-12-29T20:45:37.610Z,1.30
2018-12-29T20:48:07.334Z,1.80
2018-12-29T20:50:37.094Z,1.80
2018-12-29T20:53:06.459Z,1.50
2018-12-29T20:55:35.834Z,1.50
2018-12-29T20:58:05.580Z,1.50
2018-12-29T21:00:35.018Z,1.40
2018-12-29T21:03:04.594Z,1.43
2018-12-29T21:05:34.112Z,1.53
2018-12-29T21:08:03.692Z,1.50
2018-12-29T21:10:33.198Z,1.50
2018-12-29T21:13:02.986Z,1.53
2018-12-29T21:15:32.436Z,1.70
2018-12-29T21:18:01.971Z,1.77
2018-12-29T21:20:31.425Z,1.37
2018-12-29T21:23:01.087Z,1.50
2018-12-29T21:25:31.104Z,1.60
2018-12-29T21:28:02.879Z,1.80
2018-12-29T21:30:32.296Z,1.40
2018-12-29T21:33:02.532Z,1.27
2018-12-29T21:35:32.720Z,1.60
2018-12-29T21:38:02.196Z,1.67
2018-12-29T21:40:31.658Z,1.20
2018-12-29T21:43:01.190Z,1.60
2018-12-29T21:45:30.981Z,1.60
2018-12-29T21:48:01.072Z,1.27
2018-12-29T21:50:31.191Z,1.22
2018-12-29T21:53:00.993Z,2.33
2018-12-29T21:55:30.922Z,1.62
2018-12-29T21:58:01.138Z,1.60
2018-12-29T22:00:30.956Z,1.40
2018-12-29T22:03:01.023Z,1.30
2018-12-29T22:05:31.161Z,1.37
2018-12-29T22:08:01.197Z,2.02
2018-12-29T22:10:30.918Z,1.17
2018-12-29T22:13:00.965Z,1.22
2018-12-29T22:15:31.020Z,1.30
2018-12-29T22:18:00.961Z,1.05
2018-12-29T22:20:33.391Z,0.98
2018-12-29T22:23:02.191Z,1.33
2018-12-29T22:25:31.603Z,1.20
2018-12-29T22:28:01.251Z,1.40
2018-12-29T22:30:31.091Z,1.20
2018-12-29T22:33:01.103Z,1.40
2018-12-29T22:35:31.137Z,1.60
2018-12-29T22:38:00.993Z,1.62
2018-12-29T22:40:31.353Z,1.70
2018-12-29T22:43:03.400Z,1.73
2018-12-29T22:45:32.853Z,1.90
2018-12-29T22:48:02.316Z,2.07
2018-12-29T22:50:32.073Z,2.10
2018-12-29T22:53:01.463Z,2.30
2018-12-29T22:55:30.968Z,1.67
2018-12-29T22:58:08.396Z,2.10
2018-12-29T23:00:39.667Z,2.53
2018-12-29T23:03:09.275Z,2.40
2018-12-29T23:05:38.847Z,2.40
2018-12-29T23:08:08.257Z,2.47
2018-12-29T23:10:37.967Z,2.30
2018-12-29T23:13:08.109Z,2.92
2018-12-29T23:15:37.586Z,3.13
2018-12-29T23:18:07.370Z,2.67
2018-12-29T23:20:37.406Z,3.60
2018-12-29T23:23:06.811Z,4.10
2018-12-29T23:25:36.207Z,4.00
2018-12-29T23:28:05.742Z,4.63
2018-12-29T23:30:35.242Z,4.60
2018-12-29T23:33:04.801Z,4.93
2018-12-29T23:35:34.420Z,4.50
2018-12-29T23:38:04.234Z,5.03
2018-12-29T23:40:33.636Z,4.53
2018-12-29T23:43:03.224Z,4.40
2018-12-29T23:45:33.017Z,4.23
2018-12-29T23:48:02.696Z,4.50
2018-12-29T23:50:32.169Z,4.13
2018-12-29T23:53:01.871Z,4.47
2018-12-29T23:55:31.617Z,4.13
2018-12-29T23:58:01.109Z,3.90
